Time;durP1;ratioP1;P1;durP2;ratioP2;P2;SDS_P1;SDS_P2;PMS_P1;PMS_P2;Temp;Humidity;BMP_temperature;BMP_pressure;BME280_temperature;BME280_humidity;BME280_pressure;Samples;Min_cycle;Max_cycle;Signal;HPM_P1;HPM_P2
2023/08/31 00:01:14;;;;;;;;;;;;;;;;;;5063677;28;20023;-60
2023/08/31 00:03:40;;;;;;;;;;;;;;;;;;5067075;28;19913;-60
2023/08/31 00:06:07;;;;;;;;;;;;;;;;;;5059106;28;19947;-60
2023/08/31 00:08:33;;;;;;;;;;;;;;;;;;5054978;28;19940;-60
2023/08/31 00:11:00;;;;;;;;;;;;;;;;;;5069069;28;19952;-59
2023/08/31 00:13:26;;;;;;;;;;;;;;;;;;5071201;28;20364;-60
2023/08/31 00:15:52;;;;;;;;;;;;;;;;;;5063180;28;19920;-61
2023/08/31 00:18:20;;;;;;;;;;;;;;;;;;5070538;28;19938;-59
2023/08/31 00:20:46;;;;;;;;;;;;;;;;;;5070652;28;19974;-59
2023/08/31 00:23:12;;;;;;;;;;;;;;;;;;5064068;28;19917;-59
2023/08/31 00:25:38;;;;;;;;;;;;;;;;;;5055789;28;19912;-60
2023/08/31 00:28:04;;;;;;;;;;;;;;;;;;5055630;28;19993;-60
2023/08/31 00:30:31;;;;;;;;;;;;;;;;;;5060646;28;19919;-61
2023/08/31 00:33:00;;;;;;;;;;;;;;;;;;5055169;28;20007;-61
2023/08/31 00:35:27;;;;;;;;;;;;;;;;;;5056339;28;19913;-61
2023/08/31 00:37:58;;;;;;;;;;;;;;;;;;5063327;28;19913;-61
2023/08/31 00:40:24;;;;;;;;;;;;;;;;;;5059466;28;19921;-56
2023/08/31 00:42:50;;;;;;;;;;;;;;;;;;5060134;28;20384;-57
2023/08/31 00:45:16;;;;;;;;;;;;;;;;;;5073430;28;20002;-57
2023/08/31 00:47:42;;;;;;;;;;;;;;;;;;5056961;28;20007;-57
2023/08/31 00:50:08;;;;;;;;;;;;;;;;;;5061539;28;20444;-60
2023/08/31 00:52:34;;;;;;;;;;;;;;;;;;5073062;28;20368;-56
2023/08/31 00:55:00;;;;;;;;;;;;;;;;;;5073855;28;19962;-58
2023/08/31 00:57:26;;;;;;;;;;;;;;;;;;5066945;28;19967;-57
2023/08/31 00:59:52;;;;;;;;;;;;;;;;;;5074581;28;19920;-56
2023/08/31 01:02:20;;;;;;;;;;;;;;;;;;5066080;28;19948;-63
2023/08/31 01:04:46;;;;;;;;;;;;;;;;;;5061586;28;19990;-65
2023/08/31 01:07:12;;;;;;;;;;;;;;;;;;5066613;28;20010;-64
2023/08/31 01:09:39;;;;;;;;;;;;;;;;;;5067022;28;20015;-64
2023/08/31 01:12:05;;;;;;;;;;;;;;;;;;5073413;28;19924;-64
2023/08/31 01:14:31;;;;;;;;;;;;;;;;;;5069263;28;19927;-64
2023/08/31 01:16:57;;;;;;;;;;;;;;;;;;5065793;28;19947;-64
2023/08/31 01:19:25;;;;;;;;;;;;;;;;;;5062784;28;20437;-65
2023/08/31 01:21:51;;;;;;;;;;;;;;;;;;5068410;28;20395;-63
2023/08/31 01:24:17;;;;;;;;;;;;;;;;;;5067214;28;19960;-64
2023/08/31 01:26:43;;;;;;;;;;;;;;;;;;5061970;28;19956;-65
2023/08/31 01:29:08;;;;;;;;;;;;;;;;;;5054764;28;19959;-64
2023/08/31 01:31:34;;;;;;;;;;;;;;;;;;5053982;28;19959;-64
2023/08/31 01:34:02;;;;;;;;;;;;;;;;;;5054857;28;19913;-64
2023/08/31 01:36:28;;;;;;;;;;;;;;;;;;5073468;28;20379;-64
2023/08/31 01:38:54;;;;;;;;;;;;;;;;;;5065163;28;19948;-64
2023/08/31 01:41:20;;;;;;;;;;;;;;;;;;5072849;28;19955;-63
2023/08/31 01:43:45;;;;;;;;;;;;;;;;;;5069955;28;19952;-64
2023/08/31 01:46:11;;;;;;;;;;;;;;;;;;5066260;28;20007;-64
2023/08/31 01:48:37;;;;;;;;;;;;;;;;;;5065393;28;19956;-64
2023/08/31 01:51:03;;;;;;;;;;;;;;;;;;5062237;28;19918;-64
2023/08/31 01:53:29;;;;;;;;;;;;;;;;;;5066880;28;19912;-64
2023/08/31 01:55:55;;;;;;;;;;;;;;;;;;5062781;28;20010;-64
2023/08/31 01:58:22;;;;;;;;;;;;;;;;;;5073218;28;19916;-63
2023/08/31 02:00:48;;;;;;;;;;;;;;;;;;5073742;28;19909;-64
2023/08/31 02:03:14;;;;;;;;;;;;;;;;;;5068093;28;20415;-64
2023/08/31 02:05:40;;;;;;;;;;;;;;;;;;5074067;28;20026;-64
2023/08/31 02:08:06;;;;;;;;;;;;;;;;;;5071014;28;19913;-64
2023/08/31 02:10:32;;;;;;;;;;;;;;;;;;5066394;28;19924;-57
2023/08/31 02:12:58;;;;;;;;;;;;;;;;;;5072122;28;20006;-56
2023/08/31 02:15:24;;;;;;;;;;;;;;;;;;5057369;28;20007;-56
2023/08/31 02:17:50;;;;;;;;;;;;;;;;;;5063907;28;20415;-56
2023/08/31 02:20:16;;;;;;;;;;;;;;;;;;5068738;28;20014;-57
2023/08/31 02:22:42;;;;;;;;;;;;;;;;;;5060530;28;19917;-58
2023/08/31 02:25:08;;;;;;;;;;;;;;;;;;5060648;28;20377;-56
2023/08/31 02:27:33;;;;;;;;;;;;;;;;;;5070393;28;21507;-57
2023/08/31 02:30:00;;;;;;;;;;;;;;;;;;5062353;28;19943;-57
2023/08/31 02:32:26;;;;;;;;;;;;;;;;;;5059891;28;19916;-57
2023/08/31 02:34:52;;;;;;;;;;;;;;;;;;5061831;28;19920;-57
2023/08/31 02:37:18;;;;;;;;;;;;;;;;;;5070952;28;19986;-57
2023/08/31 02:39:44;;;;;;;;;;;;;;;;;;5071891;28;20361;-57
2023/08/31 02:42:10;;;;;;;;;;;;;;;;;;5069930;28;19912;-59
2023/08/31 02:44:36;;;;;;;;;;;;;;;;;;5063967;28;19999;-60
2023/08/31 02:47:02;;;;;;;;;;;;;;;;;;5054280;28;19923;-57
2023/08/31 02:49:28;;;;;;;;;;;;;;;;;;5082976;28;19912;-58
2023/08/31 02:51:54;;;;;;;;;;;;;;;;;;5067789;28;19948;-56
2023/08/31 02:54:20;;;;;;;;;;;;;;;;;;5065625;28;19989;-57
2023/08/31 02:56:46;;;;;;;;;;;;;;;;;;5059072;28;20376;-57
2023/08/31 02:59:12;;;;;;;;;;;;;;;;;;5052836;28;19920;-58
2023/08/31 03:01:38;;;;;;;;;;;;;;;;;;5071762;28;19916;-56
2023/08/31 03:04:05;;;;;;;;;;;;;;;;;;5069905;28;19913;-62
2023/08/31 03:06:31;;;;;;;;;;;;;;;;;;5065242;28;20371;-56
2023/08/31 03:08:57;;;;;;;;;;;;;;;;;;5072686;28;19916;-56
2023/08/31 03:11:22;;;;;;;;;;;;;;;;;;5070430;28;19952;-59
2023/08/31 03:13:48;;;;;;;;;;;;;;;;;;5072775;28;20010;-56
2023/08/31 03:16:14;;;;;;;;;;;;;;;;;;5059588;28;19913;-57
2023/08/31 03:18:40;;;;;;;;;;;;;;;;;;5054207;28;19913;-57
2023/08/31 03:21:06;;;;;;;;;;;;;;;;;;5063008;28;19948;-58
2023/08/31 03:23:32;;;;;;;;;;;;;;;;;;5072576;28;19915;-58
2023/08/31 03:25:58;;;;;;;;;;;;;;;;;;5056162;28;19928;-58
2023/08/31 03:28:24;;;;;;;;;;;;;;;;;;5068641;28;19984;-58
2023/08/31 03:30:50;;;;;;;;;;;;;;;;;;5070534;28;19912;-56
2023/08/31 03:33:16;;;;;;;;;;;;;;;;;;5053090;28;20437;-56
2023/08/31 03:35:42;;;;;;;;;;;;;;;;;;5065657;28;20295;-56
2023/08/31 03:38:08;;;;;;;;;;;;;;;;;;5062546;28;19944;-57
2023/08/31 03:40:34;;;;;;;;;;;;;;;;;;5055559;28;19912;-58
2023/08/31 03:43:00;;;;;;;;;;;;;;;;;;5072053;28;20412;-57
2023/08/31 03:45:26;;;;;;;;;;;;;;;;;;5062043;28;20359;-56
2023/08/31 03:47:52;;;;;;;;;;;;;;;;;;5069531;28;20410;-59
2023/08/31 03:50:17;;;;;;;;;;;;;;;;;;5060121;28;19916;-58
2023/08/31 03:52:43;;;;;;;;;;;;;;;;;;5064938;28;19976;-59
2023/08/31 03:55:09;;;;;;;;;;;;;;;;;;5063607;28;19985;-57
2023/08/31 03:57:35;;;;;;;;;;;;;;;;;;5056613;28;20003;-57
2023/08/31 04:00:04;;;;;;;;;;;;;;;;;;5071435;28;20437;-58
2023/08/31 04:02:31;;;;;;;;;;;;;;;;;;5067747;28;20280;-61
2023/08/31 04:04:57;;;;;;;;;;;;;;;;;;5063945;28;19916;-57
2023/08/31 04:07:22;;;;;;;;;;;;;;;;;;5064017;28;20284;-58
2023/08/31 04:09:48;;;;;;;;;;;;;;;;;;5064238;28;19944;-58
2023/08/31 04:12:14;;;;;;;;;;;;;;;;;;5060377;28;19917;-57
2023/08/31 04:14:40;;;;;;;;;;;;;;;;;;5061606;28;19956;-57
2023/08/31 04:17:06;;;;;;;;;;;;;;;;;;5072023;28;20011;-56
2023/08/31 04:19:32;;;;;;;;;;;;;;;;;;5074000;28;19988;-57
2023/08/31 04:21:58;;;;;;;;;;;;;;;;;;5068487;28;19919;-58
2023/08/31 04:24:24;;;;;;;;;;;;;;;;;;5065011;28;19913;-57
2023/08/31 04:26:51;;;;;;;;;;;;;;;;;;5069986;28;19920;-57
2023/08/31 04:29:17;;;;;;;;;;;;;;;;;;5075566;28;20425;-60
2023/08/31 04:31:43;;;;;;;;;;;;;;;;;;5060916;28;19916;-59
2023/08/31 04:34:08;;;;;;;;;;;;;;;;;;5069311;28;19943;-60
2023/08/31 04:36:34;;;;;;;;;;;;;;;;;;5071932;28;20004;-60
2023/08/31 04:39:00;;;;;;;;;;;;;;;;;;5070466;28;19913;-60
2023/08/31 04:41:26;;;;;;;;;;;;;;;;;;5064358;28;19984;-60
2023/08/31 04:43:53;;;;;;;;;;;;;;;;;;5063271;28;19994;-61
2023/08/31 04:46:19;;;;;;;;;;;;;;;;;;5065035;28;19920;-61
2023/08/31 04:48:45;;;;;;;;;;;;;;;;;;5074719;28;19924;-60
2023/08/31 04:51:10;;;;;;;;;;;;;;;;;;5066266;28;19936;-60
2023/08/31 04:53:36;;;;;;;;;;;;;;;;;;5065452;28;19962;-60
2023/08/31 04:56:02;;;;;;;;;;;;;;;;;;5061153;28;19917;-60
2023/08/31 04:58:28;;;;;;;;;;;;;;;;;;5063114;28;19912;-60
2023/08/31 05:00:54;;;;;;;;;;;;;;;;;;5067732;28;20017;-60
2023/08/31 05:03:20;;;;;;;;;;;;;;;;;;5068339;28;20364;-60
2023/08/31 05:05:46;;;;;;;;;;;;;;;;;;5061017;28;19928;-61
2023/08/31 05:08:12;;;;;;;;;;;;;;;;;;5068094;28;20288;-61
2023/08/31 05:10:38;;;;;;;;;;;;;;;;;;5068881;28;20426;-62
2023/08/31 05:13:04;;;;;;;;;;;;;;;;;;5064584;28;19940;-61
2023/08/31 05:15:30;;;;;;;;;;;;;;;;;;5067796;28;19927;-61
2023/08/31 05:17:56;;;;;;;;;;;;;;;;;;5068495;28;19962;-61
2023/08/31 05:20:25;;;;;;;;;;;;;;;;;;5061731;28;19962;-61
2023/08/31 05:22:50;;;;;;;;;;;;;;;;;;5059577;28;20388;-61
2023/08/31 05:25:16;;;;;;;;;;;;;;;;;;5060136;28;19966;-61
2023/08/31 05:27:42;;;;;;;;;;;;;;;;;;5067758;28;19955;-61
2023/08/31 05:30:09;;;;;;;;;;;;;;;;;;5067029;28;20343;-61
2023/08/31 05:32:35;;;;;;;;;;;;;;;;;;5063783;28;19913;-61
2023/08/31 05:35:01;;;;;;;;;;;;;;;;;;5061550;28;19951;-61
2023/08/31 05:37:27;;;;;;;;;;;;;;;;;;5057826;28;19948;-61
2023/08/31 05:39:53;;;;;;;;;;;;;;;;;;5058840;28;20039;-61
2023/08/31 05:42:19;;;;;;;;;;;;;;;;;;5071701;28;19916;-61
2023/08/31 05:44:45;;;;;;;;;;;;;;;;;;5073144;28;19978;-61
2023/08/31 05:47:11;;;;;;;;;;;;;;;;;;5072220;28;19916;-61
2023/08/31 05:49:37;;;;;;;;;;;;;;;;;;5072234;28;19917;-61
2023/08/31 05:52:03;;;;;;;;;;;;;;;;;;5073255;28;19920;-61
2023/08/31 05:54:29;;;;;;;;;;;;;;;;;;5072853;28;20007;-61
2023/08/31 05:56:55;;;;;;;;;;;;;;;;;;5068187;28;20395;-61
2023/08/31 05:59:21;;;;;;;;;;;;;;;;;;5068703;28;19951;-61
2023/08/31 06:01:47;;;;;;;;;;;;;;;;;;5070614;28;19939;-61
2023/08/31 06:04:12;;;;;;;;;;;;;;;;;;5072053;28;20380;-61
2023/08/31 06:06:38;;;;;;;;;;;;;;;;;;5065888;28;20019;-61
2023/08/31 06:09:06;;;;;;;;;;;;;;;;;;5068720;28;19920;-61
2023/08/31 06:11:32;;;;;;;;;;;;;;;;;;5071055;28;20313;-61
2023/08/31 06:13:58;;;;;;;;;;;;;;;;;;5066245;28;19920;-61
2023/08/31 06:16:24;;;;;;;;;;;;;;;;;;5063005;28;19913;-61
2023/08/31 06:18:51;;;;;;;;;;;;;;;;;;5059551;28;19938;-61
2023/08/31 06:21:17;;;;;;;;;;;;;;;;;;5063664;28;19932;-61
2023/08/31 06:23:43;;;;;;;;;;;;;;;;;;5071896;28;19912;-61
2023/08/31 06:26:09;;;;;;;;;;;;;;;;;;5072136;28;19963;-61
2023/08/31 06:28:35;;;;;;;;;;;;;;;;;;5068614;28;19951;-61
2023/08/31 06:31:00;;;;;;;;;;;;;;;;;;5062451;28;20007;-61
2023/08/31 06:33:26;;;;;;;;;;;;;;;;;;5063542;28;20014;-61
2023/08/31 06:35:52;;;;;;;;;;;;;;;;;;5072261;28;19915;-61
2023/08/31 06:38:18;;;;;;;;;;;;;;;;;;5072787;28;19913;-61
2023/08/31 06:40:44;;;;;;;;;;;;;;;;;;5064065;28;20007;-61
2023/08/31 06:43:10;;;;;;;;;;;;;;;;;;5072192;28;20010;-61
2023/08/31 06:45:36;;;;;;;;;;;;;;;;;;5071428;28;19952;-61
2023/08/31 06:48:02;;;;;;;;;;;;;;;;;;5066540;28;20376;-61
2023/08/31 06:50:28;;;;;;;;;;;;;;;;;;5062940;28;20901;-63
2023/08/31 06:52:54;;;;;;;;;;;;;;;;;;5071371;28;19963;-65
2023/08/31 06:55:20;;;;;;;;;;;;;;;;;;5066908;28;20000;-63
2023/08/31 06:57:46;;;;;;;;;;;;;;;;;;5072333;28;20368;-65
2023/08/31 07:00:12;;;;;;;;;;;;;;;;;;5069421;28;19924;-64
2023/08/31 07:02:38;;;;;;;;;;;;;;;;;;5061519;28;19935;-64
2023/08/31 07:05:04;;;;;;;;;;;;;;;;;;5072002;28;19912;-63
2023/08/31 07:07:30;;;;;;;;;;;;;;;;;;5058368;28;20015;-64
2023/08/31 07:09:56;;;;;;;;;;;;;;;;;;5062152;28;19920;-64
2023/08/31 07:12:22;;;;;;;;;;;;;;;;;;5061149;28;19967;-65
2023/08/31 07:14:47;;;;;;;;;;;;;;;;;;5060179;28;19966;-65
2023/08/31 07:17:13;;;;;;;;;;;;;;;;;;5068562;28;19912;-64
2023/08/31 07:19:39;;;;;;;;;;;;;;;;;;5067420;28;19990;-61
2023/08/31 07:22:06;;;;;;;;;;;;;;;;;;5068636;28;20450;-66
2023/08/31 07:24:32;;;;;;;;;;;;;;;;;;5071620;28;19920;-65
2023/08/31 07:26:59;;;;;;;;;;;;;;;;;;5061496;28;21542;-65
2023/08/31 07:29:25;;;;;;;;;;;;;;;;;;5066361;28;19935;-63
2023/08/31 07:31:51;;;;;;;;;;;;;;;;;;5069484;28;19981;-64
2023/08/31 07:34:17;;;;;;;;;;;;;;;;;;5070779;28;20678;-65
2023/08/31 07:36:43;;;;;;;;;;;;;;;;;;5071988;28;20368;-64
2023/08/31 07:39:09;;;;;;;;;;;;;;;;;;5066118;28;19912;-65
2023/08/31 07:41:35;;;;;;;;;;;;;;;;;;5064311;28;19967;-65
2023/08/31 07:44:02;;;;;;;;;;;;;;;;;;5069219;28;19913;-64
2023/08/31 07:46:28;;;;;;;;;;;;;;;;;;5063762;28;20364;-64
2023/08/31 07:48:55;;;;;;;;;;;;;;;;;;5069897;28;20003;-65
2023/08/31 07:51:23;;;;;;;;;;;;;;;;;;5063478;28;19920;-63
2023/08/31 07:53:48;;;;;;;;;;;;;;;;;;5058088;28;19917;-64
2023/08/31 07:56:14;;;;;;;;;;;;;;;;;;5063062;28;19945;-65
2023/08/31 07:58:40;;;;;;;;;;;;;;;;;;5066421;28;19924;-65
2023/08/31 08:01:06;;;;;;;;;;;;;;;;;;5060918;28;19948;-58
2023/08/31 08:03:32;;;;;;;;;;;;;;;;;;5071334;28;19913;-58
2023/08/31 08:05:58;;;;;;;;;;;;;;;;;;5068353;28;20066;-58
2023/08/31 08:08:24;;;;;;;;;;;;;;;;;;5064974;28;19920;-57
2023/08/31 08:10:50;;;;;;;;;;;;;;;;;;5060773;28;19913;-57
2023/08/31 08:13:17;;;;;;;;;;;;;;;;;;5065680;28;19959;-57
2023/08/31 08:15:43;;;;;;;;;;;;;;;;;;5066343;28;20339;-58
2023/08/31 08:18:09;;;;;;;;;;;;;;;;;;5070478;28;19966;-59
2023/08/31 08:20:35;;;;;;;;;;;;;;;;;;5069985;28;19969;-57
2023/08/31 08:23:01;;;;;;;;;;;;;;;;;;5069116;28;19952;-58
2023/08/31 08:25:27;;;;;;;;;;;;;;;;;;5062338;28;19928;-60
2023/08/31 08:27:52;;;;;;;;;;;;;;;;;;5056195;28;20019;-58
2023/08/31 08:30:19;;;;;;;;;;;;;;;;;;5066895;28;19916;-58
2023/08/31 08:32:45;;;;;;;;;;;;;;;;;;5067989;28;20410;-58
2023/08/31 08:35:11;;;;;;;;;;;;;;;;;;5071097;28;19912;-57
2023/08/31 08:37:37;;;;;;;;;;;;;;;;;;5071246;28;20395;-58
2023/08/31 08:40:04;;;;;;;;;;;;;;;;;;5070707;28;19913;-59
2023/08/31 08:42:29;;;;;;;;;;;;;;;;;;5070475;28;20015;-57
2023/08/31 08:44:55;;;;;;;;;;;;;;;;;;5071030;28;20362;-55
2023/08/31 08:47:21;;;;;;;;;;;;;;;;;;5066908;28;19959;-58
2023/08/31 08:49:47;;;;;;;;;;;;;;;;;;5070594;28;20355;-58
2023/08/31 08:52:13;;;;;;;;;;;;;;;;;;5070834;28;20038;-58
2023/08/31 08:54:39;;;;;;;;;;;;;;;;;;5069435;28;20655;-58
2023/08/31 08:57:05;;;;;;;;;;;;;;;;;;5067198;28;19916;-58
2023/08/31 08:59:31;;;;;;;;;;;;;;;;;;5057759;28;19999;-57
2023/08/31 09:01:57;;;;;;;;;;;;;;;;;;5067868;28;19946;-57
2023/08/31 09:04:23;;;;;;;;;;;;;;;;;;5074142;28;19913;-58
2023/08/31 09:06:49;;;;;;;;;;;;;;;;;;5074208;28;19967;-58
2023/08/31 09:09:16;;;;;;;;;;;;;;;;;;5068680;28;19912;-65
2023/08/31 09:11:42;;;;;;;;;;;;;;;;;;5073628;28;20293;-65
2023/08/31 09:14:08;;;;;;;;;;;;;;;;;;5073282;28;19965;-65
2023/08/31 09:16:34;;;;;;;;;;;;;;;;;;5064717;28;20055;-63
2023/08/31 09:19:00;;;;;;;;;;;;;;;;;;5071215;28;19928;-65
2023/08/31 09:21:26;;;;;;;;;;;;;;;;;;5072174;28;19916;-65
2023/08/31 09:23:52;;;;;;;;;;;;;;;;;;5073002;28;19912;-64
2023/08/31 09:26:18;;;;;;;;;;;;;;;;;;5072566;28;20360;-65
2023/08/31 09:28:45;;;;;;;;;;;;;;;;;;5070481;28;19912;-65
2023/08/31 09:31:11;;;;;;;;;;;;;;;;;;5072062;28;20501;-62
2023/08/31 09:33:37;;;;;;;;;;;;;;;;;;5071201;28;19959;-65
2023/08/31 09:36:04;;;;;;;;;;;;;;;;;;5069681;28;19966;-63
2023/08/31 09:38:29;;;;;;;;;;;;;;;;;;5072513;28;19912;-65
2023/08/31 09:40:55;;;;;;;;;;;;;;;;;;5071148;28;20407;-63
2023/08/31 09:43:21;;;;;;;;;;;;;;;;;;5072010;28;19912;-64
2023/08/31 09:45:47;;;;;;;;;;;;;;;;;;5070526;28;19971;-65
2023/08/31 09:48:13;;;;;;;;;;;;;;;;;;5070490;28;19983;-66
2023/08/31 09:50:39;;;;;;;;;;;;;;;;;;5072025;28;19950;-65
2023/08/31 09:53:05;;;;;;;;;;;;;;;;;;5072270;28;19912;-64
2023/08/31 09:55:31;;;;;;;;;;;;;;;;;;5072277;28;19977;-64
2023/08/31 09:57:57;;;;;;;;;;;;;;;;;;5071212;28;20387;-65
2023/08/31 10:00:23;;;;;;;;;;;;;;;;;;5071103;28;19913;-65
2023/08/31 10:02:49;;;;;;;;;;;;;;;;;;5070355;28;20391;-65
2023/08/31 10:05:15;;;;;;;;;;;;;;;;;;5073898;28;19913;-65
2023/08/31 10:07:41;;;;;;;;;;;;;;;;;;5068484;28;19925;-64
2023/08/31 10:10:07;;;;;;;;;;;;;;;;;;5070957;28;20368;-65
2023/08/31 10:12:33;;;;;;;;;;;;;;;;;;5071147;28;19916;-65
2023/08/31 10:14:59;;;;;;;;;;;;;;;;;;5068985;28;19963;-63
2023/08/31 10:17:25;;;;;;;;;;;;;;;;;;5067232;28;20023;-63
2023/08/31 10:19:51;;;;;;;;;;;;;;;;;;5072049;28;19995;-62
2023/08/31 10:22:17;;;;;;;;;;;;;;;;;;5073228;28;19993;-61
2023/08/31 10:24:43;;;;;;;;;;;;;;;;;;5071224;28;19913;-61
2023/08/31 10:27:09;;;;;;;;;;;;;;;;;;5060423;28;20401;-61
2023/08/31 10:29:35;;;;;;;;;;;;;;;;;;5062919;28;19953;-61
2023/08/31 10:32:02;;;;;;;;;;;;;;;;;;5064300;28;19991;-61
2023/08/31 10:34:28;;;;;;;;;;;;;;;;;;5066792;28;20314;-62
2023/08/31 10:36:54;;;;;;;;;;;;;;;;;;5069345;28;19959;-62
2023/08/31 10:39:20;;;;;;;;;;;;;;;;;;5074476;28;19999;-62
2023/08/31 10:41:46;;;;;;;;;;;;;;;;;;5067167;28;20261;-61
2023/08/31 10:44:11;;;;;;;;;;;;;;;;;;5063452;28;20356;-61
2023/08/31 10:46:38;;;;;;;;;;;;;;;;;;5068914;28;19927;-61
2023/08/31 10:49:04;;;;;;;;;;;;;;;;;;5070599;28;19912;-61
2023/08/31 10:51:30;;;;;;;;;;;;;;;;;;5070450;28;19951;-61
2023/08/31 10:53:56;;;;;;;;;;;;;;;;;;5063747;28;20276;-61
2023/08/31 10:56:22;;;;;;;;;;;;;;;;;;5065336;28;19972;-62
2023/08/31 10:58:48;;;;;;;;;;;;;;;;;;5060648;28;19913;-62
2023/08/31 11:01:14;;;;;;;;;;;;;;;;;;5069990;28;20008;-63
2023/08/31 11:03:40;;;;;;;;;;;;;;;;;;5069860;28;20437;-62
2023/08/31 11:06:06;;;;;;;;;;;;;;;;;;5071091;28;19952;-63
2023/08/31 11:08:31;;;;;;;;;;;;;;;;;;5066672;28;19951;-62
2023/08/31 11:10:57;;;;;;;;;;;;;;;;;;5068622;28;20394;-62
2023/08/31 11:13:23;;;;;;;;;;;;;;;;;;5077683;28;19924;-62
2023/08/31 11:15:49;;;;;;;;;;;;;;;;;;5070187;28;20308;-62
2023/08/31 11:18:17;;;;;;;;;;;;;;;;;;5063148;28;19912;-61
2023/08/31 11:20:43;;;;;;;;;;;;;;;;;;5064960;28;20403;-61
2023/08/31 11:23:09;;;;;;;;;;;;;;;;;;5071661;28;19952;-61
2023/08/31 11:25:35;;;;;;;;;;;;;;;;;;5071711;28;19958;-61
2023/08/31 11:28:01;;;;;;;;;;;;;;;;;;5070214;28;20447;-61
2023/08/31 11:30:27;;;;;;;;;;;;;;;;;;5068576;28;19960;-61
2023/08/31 11:32:52;;;;;;;;;;;;;;;;;;5058893;28;21306;-62
2023/08/31 11:35:21;;;;;;;;;;;;;;;;;;5066871;28;20244;-62
2023/08/31 11:37:48;;;;;;;;;;;;;;;;;;5070093;28;19990;-62
2023/08/31 11:40:14;;;;;;;;;;;;;;;;;;5065035;28;20407;-62
2023/08/31 11:42:40;;;;;;;;;;;;;;;;;;5069618;28;20007;-62
2023/08/31 11:45:06;;;;;;;;;;;;;;;;;;5070469;28;19995;-62
2023/08/31 11:47:32;;;;;;;;;;;;;;;;;;5069703;28;19923;-62
2023/08/31 11:49:58;;;;;;;;;;;;;;;;;;5060793;28;19916;-62
2023/08/31 11:52:24;;;;;;;;;;;;;;;;;;5069955;28;19913;-61
2023/08/31 11:54:50;;;;;;;;;;;;;;;;;;5069503;28;20004;-61
2023/08/31 11:57:16;;;;;;;;;;;;;;;;;;5069976;28;20307;-61
2023/08/31 11:59:42;;;;;;;;;;;;;;;;;;5065684;28;19982;-61
2023/08/31 12:02:08;;;;;;;;;;;;;;;;;;5060786;28;20319;-61
2023/08/31 12:04:34;;;;;;;;;;;;;;;;;;5064268;28;20331;-61
2023/08/31 12:06:59;;;;;;;;;;;;;;;;;;5068329;28;19952;-61
2023/08/31 12:09:25;;;;;;;;;;;;;;;;;;5069781;28;19919;-61
2023/08/31 12:11:51;;;;;;;;;;;;;;;;;;5070113;28;19912;-61
2023/08/31 12:14:17;;;;;;;;;;;;;;;;;;5062972;28;20030;-61
2023/08/31 12:16:44;;;;;;;;;;;;;;;;;;5060452;28;21356;-61
2023/08/31 12:19:10;;;;;;;;;;;;;;;;;;5069549;28;19919;-61
2023/08/31 12:21:36;;;;;;;;;;;;;;;;;;5067158;28;19916;-61
2023/08/31 12:24:03;;;;;;;;;;;;;;;;;;5063379;28;20303;-62
2023/08/31 12:26:29;;;;;;;;;;;;;;;;;;5069589;28;19924;-62
2023/08/31 12:28:55;;;;;;;;;;;;;;;;;;5063472;28;19916;-62
2023/08/31 12:31:21;;;;;;;;;;;;;;;;;;5069529;28;19913;-60
2023/08/31 12:33:47;;;;;;;;;;;;;;;;;;5065385;28;20003;-60
2023/08/31 12:36:13;;;;;;;;;;;;;;;;;;5063606;28;19966;-59
2023/08/31 12:38:39;;;;;;;;;;;;;;;;;;5074807;28;19975;-59
2023/08/31 12:41:05;;;;;;;;;;;;;;;;;;5074587;28;20411;-56
2023/08/31 12:43:31;;;;;;;;;;;;;;;;;;5072862;28;19916;-59
2023/08/31 12:45:57;;;;;;;;;;;;;;;;;;5062062;28;20303;-58
2023/08/31 12:48:23;;;;;;;;;;;;;;;;;;5071427;28;19969;-58
2023/08/31 12:50:49;;;;;;;;;;;;;;;;;;5062658;28;19913;-57
2023/08/31 12:53:15;;;;;;;;;;;;;;;;;;5070648;28;20399;-56
2023/08/31 12:55:40;;;;;;;;;;;;;;;;;;5066176;28;20446;-56
2023/08/31 12:58:06;;;;;;;;;;;;;;;;;;5070827;28;19912;-56
2023/08/31 13:00:33;;;;;;;;;;;;;;;;;;5071061;28;20374;-56
2023/08/31 13:03:00;;;;;;;;;;;;;;;;;;5072680;28;19948;-55
2023/08/31 13:05:27;;;;;;;;;;;;;;;;;;5067306;28;19931;-56
2023/08/31 13:07:53;;;;;;;;;;;;;;;;;;5059996;28;19977;-59
2023/08/31 13:10:19;;;;;;;;;;;;;;;;;;5057036;28;19952;-56
2023/08/31 13:12:45;;;;;;;;;;;;;;;;;;5068547;28;20011;-56
2023/08/31 13:15:11;;;;;;;;;;;;;;;;;;5071878;28;20053;-56
2023/08/31 13:17:37;;;;;;;;;;;;;;;;;;5073543;28;19993;-56
2023/08/31 13:20:04;;;;;;;;;;;;;;;;;;5065619;28;19967;-56
2023/08/31 13:22:29;;;;;;;;;;;;;;;;;;5072091;28;19913;-55
2023/08/31 13:24:56;;;;;;;;;;;;;;;;;;5071879;28;20429;-55
2023/08/31 13:27:22;;;;;;;;;;;;;;;;;;5072038;28;20344;-59
2023/08/31 13:29:48;;;;;;;;;;;;;;;;;;5060797;28;19963;-58
2023/08/31 13:32:14;;;;;;;;;;;;;;;;;;5066702;28;19938;-58
2023/08/31 13:34:40;;;;;;;;;;;;;;;;;;5071471;28;19959;-57
2023/08/31 13:37:06;;;;;;;;;;;;;;;;;;5068950;28;19920;-58
2023/08/31 13:39:32;;;;;;;;;;;;;;;;;;5064954;28;20411;-58
2023/08/31 13:41:57;;;;;;;;;;;;;;;;;;5066580;28;20405;-59
2023/08/31 13:44:23;;;;;;;;;;;;;;;;;;5066838;28;19920;-57
2023/08/31 13:46:49;;;;;;;;;;;;;;;;;;5064191;28;19939;-58
2023/08/31 13:49:15;;;;;;;;;;;;;;;;;;5060855;28;19963;-63
2023/08/31 13:51:41;;;;;;;;;;;;;;;;;;5069069;28;19916;-65
2023/08/31 13:54:07;;;;;;;;;;;;;;;;;;5064569;28;19913;-65
2023/08/31 13:56:33;;;;;;;;;;;;;;;;;;5062299;28;19998;-65
2023/08/31 13:58:59;;;;;;;;;;;;;;;;;;5064095;28;19917;-65
2023/08/31 14:01:25;;;;;;;;;;;;;;;;;;5060935;28;19913;-64
2023/08/31 14:03:51;;;;;;;;;;;;;;;;;;5063013;28;19949;-64
2023/08/31 14:06:17;;;;;;;;;;;;;;;;;;5071415;28;20376;-65
2023/08/31 14:08:43;;;;;;;;;;;;;;;;;;5058100;28;19921;-65
2023/08/31 14:11:08;;;;;;;;;;;;;;;;;;5064959;28;19981;-63
2023/08/31 14:13:34;;;;;;;;;;;;;;;;;;5064873;28;19956;-65
2023/08/31 14:16:00;;;;;;;;;;;;;;;;;;5070903;28;19916;-66
2023/08/31 14:18:28;;;;;;;;;;;;;;;;;;5072506;28;19922;-65
2023/08/31 14:20:54;;;;;;;;;;;;;;;;;;5072910;28;19961;-64
2023/08/31 14:23:20;;;;;;;;;;;;;;;;;;5066151;28;20014;-63
2023/08/31 14:25:46;;;;;;;;;;;;;;;;;;5062694;28;20376;-65
2023/08/31 14:28:12;;;;;;;;;;;;;;;;;;5063650;28;19932;-66
2023/08/31 14:30:38;;;;;;;;;;;;;;;;;;5065269;28;20842;-66
2023/08/31 14:33:03;;;;;;;;;;;;;;;;;;5068712;28;19917;-65
2023/08/31 14:35:30;;;;;;;;;;;;;;;;;;5072487;28;19978;-66
2023/08/31 14:37:56;;;;;;;;;;;;;;;;;;5058487;28;19921;-64
2023/08/31 14:40:22;;;;;;;;;;;;;;;;;;5065642;28;19948;-64
2023/08/31 14:42:47;;;;;;;;;;;;;;;;;;5069642;28;20360;-65
2023/08/31 14:45:14;;;;;;;;;;;;;;;;;;5065267;28;20023;-65
2023/08/31 14:47:39;;;;;;;;;;;;;;;;;;5066660;28;20485;-65
2023/08/31 14:50:05;;;;;;;;;;;;;;;;;;5070215;28;19944;-65
2023/08/31 14:52:31;;;;;;;;;;;;;;;;;;5063953;28;20003;-64
2023/08/31 14:54:57;;;;;;;;;;;;;;;;;;5060805;28;19916;-63
2023/08/31 14:57:23;;;;;;;;;;;;;;;;;;5056076;28;19959;-65
2023/08/31 14:59:53;;;;;;;;;;;;;;;;;;5059387;28;19913;-61
2023/08/31 15:02:21;;;;;;;;;;;;;;;;;;5055403;28;19920;-60
2023/08/31 15:04:47;;;;;;;;;;;;;;;;;;5065251;28;19916;-60
2023/08/31 15:07:13;;;;;;;;;;;;;;;;;;5057186;28;20018;-60
2023/08/31 15:09:39;;;;;;;;;;;;;;;;;;5068099;28;19948;-60
2023/08/31 15:12:05;;;;;;;;;;;;;;;;;;5056541;28;19919;-60
2023/08/31 15:14:31;;;;;;;;;;;;;;;;;;5056220;28;20295;-61
2023/08/31 15:16:56;;;;;;;;;;;;;;;;;;5055359;28;20062;-60
2023/08/31 15:19:22;;;;;;;;;;;;;;;;;;5061627;28;19975;-60
2023/08/31 15:21:48;;;;;;;;;;;;;;;;;;5057929;28;19960;-61
2023/08/31 15:24:15;;;;;;;;;;;;;;;;;;5061361;28;19986;-61
2023/08/31 15:26:41;;;;;;;;;;;;;;;;;;5056157;28;19929;-61
2023/08/31 15:29:06;;;;;;;;;;;;;;;;;;5076390;28;19960;-60
2023/08/31 15:31:32;;;;;;;;;;;;;;;;;;5068128;28;20002;-60
2023/08/31 15:33:58;;;;;;;;;;;;;;;;;;5055506;28;19944;-59
2023/08/31 15:36:24;;;;;;;;;;;;;;;;;;5069846;28;20406;-59
2023/08/31 15:38:50;;;;;;;;;;;;;;;;;;5064746;28;19920;-60
2023/08/31 15:41:16;;;;;;;;;;;;;;;;;;5069601;28;19916;-60
2023/08/31 15:43:42;;;;;;;;;;;;;;;;;;5066012;28;20408;-59
2023/08/31 15:46:08;;;;;;;;;;;;;;;;;;5063952;28;19935;-59
2023/08/31 15:48:34;;;;;;;;;;;;;;;;;;5066527;28;19995;-59
2023/08/31 15:51:00;;;;;;;;;;;;;;;;;;5067794;28;19948;-60
2023/08/31 15:53:27;;;;;;;;;;;;;;;;;;5069779;28;20001;-59
2023/08/31 15:55:53;;;;;;;;;;;;;;;;;;5059008;28;19916;-61
2023/08/31 15:58:20;;;;;;;;;;;;;;;;;;5064994;28;19921;-59
2023/08/31 16:00:46;;;;;;;;;;;;;;;;;;5057816;28;20334;-59
2023/08/31 16:03:12;;;;;;;;;;;;;;;;;;5063977;28;19950;-61
2023/08/31 16:05:38;;;;;;;;;;;;;;;;;;5053758;28;19962;-59
2023/08/31 16:08:04;;;;;;;;;;;;;;;;;;5058285;28;19966;-62
2023/08/31 16:10:30;;;;;;;;;;;;;;;;;;5057619;28;20310;-56
2023/08/31 16:12:55;;;;;;;;;;;;;;;;;;5056510;28;19917;-57
2023/08/31 16:15:21;;;;;;;;;;;;;;;;;;5062005;28;19921;-58
2023/08/31 16:17:47;;;;;;;;;;;;;;;;;;5058651;28;20402;-61
2023/08/31 16:20:13;;;;;;;;;;;;;;;;;;5062842;28;19971;-60
2023/08/31 16:22:39;;;;;;;;;;;;;;;;;;5066015;28;19919;-58
2023/08/31 16:25:05;;;;;;;;;;;;;;;;;;5066574;28;19952;-57
2023/08/31 16:27:31;;;;;;;;;;;;;;;;;;5060159;28;19958;-62
2023/08/31 16:29:58;;;;;;;;;;;;;;;;;;5065402;28;19959;-58
2023/08/31 16:32:24;;;;;;;;;;;;;;;;;;5064684;28;19917;-60
2023/08/31 16:34:50;;;;;;;;;;;;;;;;;;5064787;28;19970;-61
2023/08/31 16:37:15;;;;;;;;;;;;;;;;;;5063718;28;20071;-59